sensor_id;sensor_type;location;lat;lon;timestamp;P1;durP1;ratioP1;P2;durP2;ratioP2
41293;SDS011;27037;52.010;4.446;2022-09-09T00:04:40;10.80;;;6.07;;
41293;SDS011;27037;52.010;4.446;2022-09-09T00:12:36;13.27;;;6.82;;
41293;SDS011;27037;52.010;4.446;2022-09-09T00:18:01;12.13;;;6.82;;
41293;SDS011;27037;52.010;4.446;2022-09-09T00:20:39;17.35;;;6.65;;
41293;SDS011;27037;52.010;4.446;2022-09-09T00:23:29;14.63;;;6.93;;
41293;SDS011;27037;52.010;4.446;2022-09-09T00:28:56;15.05;;;6.75;;
41293;SDS011;27037;52.010;4.446;2022-09-09T00:31:28;12.93;;;7.22;;
41293;SDS011;27037;52.010;4.446;2022-09-09T00:34:00;18.33;;;7.78;;
41293;SDS011;27037;52.010;4.446;2022-09-09T00:36:34;13.63;;;6.85;;
41293;SDS011;27037;52.010;4.446;2022-09-09T00:39:02;15.60;;;7.65;;
41293;SDS011;27037;52.010;4.446;2022-09-09T00:46:36;14.05;;;8.00;;
41293;SDS011;27037;52.010;4.446;2022-09-09T00:57:31;17.48;;;9.20;;
41293;SDS011;27037;52.010;4.446;2022-09-09T01:00:16;13.38;;;9.13;;
41293;SDS011;27037;52.010;4.446;2022-09-09T01:11:02;17.95;;;9.43;;
41293;SDS011;27037;52.010;4.446;2022-09-09T01:13:28;18.80;;;9.35;;
41293;SDS011;27037;52.010;4.446;2022-09-09T01:15:57;17.83;;;8.82;;
41293;SDS011;27037;52.010;4.446;2022-09-09T01:18:26;17.48;;;8.98;;
41293;SDS011;27037;52.010;4.446;2022-09-09T01:29:12;15.63;;;6.90;;
41293;SDS011;27037;52.010;4.446;2022-09-09T01:34:35;10.70;;;5.05;;
41293;SDS011;27037;52.010;4.446;2022-09-09T01:37:07;13.23;;;4.03;;
41293;SDS011;27037;52.010;4.446;2022-09-09T01:39:36;14.77;;;4.15;;
41293;SDS011;27037;52.010;4.446;2022-09-09T01:42:04;9.55;;;3.60;;
41293;SDS011;27037;52.010;4.446;2022-09-09T01:44:36;11.63;;;3.58;;
41293;SDS011;27037;52.010;4.446;2022-09-09T01:47:03;8.82;;;3.40;;
41293;SDS011;27037;52.010;4.446;2022-09-09T01:49:29;8.68;;;3.30;;
41293;SDS011;27037;52.010;4.446;2022-09-09T01:51:57;8.82;;;3.00;;
41293;SDS011;27037;52.010;4.446;2022-09-09T01:54:24;8.45;;;2.78;;
41293;SDS011;27037;52.010;4.446;2022-09-09T01:57:04;6.97;;;2.78;;
41293;SDS011;27037;52.010;4.446;2022-09-09T02:07:58;8.65;;;2.50;;
41293;SDS011;27037;52.010;4.446;2022-09-09T02:13:01;9.40;;;3.47;;
41293;SDS011;27037;52.010;4.446;2022-09-09T02:15:36;11.90;;;3.42;;
41293;SDS011;27037;52.010;4.446;2022-09-09T02:18:06;8.55;;;3.50;;
41293;SDS011;27037;52.010;4.446;2022-09-09T02:20:33;7.65;;;3.28;;
41293;SDS011;27037;52.010;4.446;2022-09-09T02:23:02;9.32;;;3.55;;
41293;SDS011;27037;52.010;4.446;2022-09-09T02:25:30;7.40;;;3.22;;
41293;SDS011;27037;52.010;4.446;2022-09-09T02:27:58;9.52;;;3.30;;
41293;SDS011;27037;52.010;4.446;2022-09-09T02:30:24;7.05;;;3.00;;
41293;SDS011;27037;52.010;4.446;2022-09-09T02:32:50;9.18;;;2.80;;
41293;SDS011;27037;52.010;4.446;2022-09-09T02:35:22;8.73;;;2.70;;
41293;SDS011;27037;52.010;4.446;2022-09-09T02:37:50;8.05;;;2.88;;
41293;SDS011;27037;52.010;4.446;2022-09-09T02:40:18;9.75;;;2.85;;
41293;SDS011;27037;52.010;4.446;2022-09-09T02:42:45;6.93;;;2.60;;
41293;SDS011;27037;52.010;4.446;2022-09-09T02:45:12;8.73;;;2.92;;
41293;SDS011;27037;52.010;4.446;2022-09-09T02:47:44;10.38;;;3.20;;
41293;SDS011;27037;52.010;4.446;2022-09-09T02:55:28;9.35;;;3.40;;
41293;SDS011;27037;52.010;4.446;2022-09-09T02:58:03;11.25;;;3.78;;
41293;SDS011;27037;52.010;4.446;2022-09-09T03:00:32;11.98;;;3.80;;
41293;SDS011;27037;52.010;4.446;2022-09-09T03:03:00;8.93;;;3.45;;
41293;SDS011;27037;52.010;4.446;2022-09-09T03:05:27;9.52;;;3.92;;
41293;SDS011;27037;52.010;4.446;2022-09-09T03:07:53;9.15;;;3.60;;
41293;SDS011;27037;52.010;4.446;2022-09-09T03:10:18;11.18;;;4.05;;
41293;SDS011;27037;52.010;4.446;2022-09-09T03:12:44;9.40;;;3.65;;
41293;SDS011;27037;52.010;4.446;2022-09-09T03:15:10;11.55;;;3.45;;
41293;SDS011;27037;52.010;4.446;2022-09-09T03:17:36;9.10;;;3.42;;
41293;SDS011;27037;52.010;4.446;2022-09-09T03:20:03;7.82;;;3.40;;
41293;SDS011;27037;52.010;4.446;2022-09-09T03:22:29;7.50;;;3.70;;
41293;SDS011;27037;52.010;4.446;2022-09-09T03:24:54;8.32;;;3.67;;
41293;SDS011;27037;52.010;4.446;2022-09-09T03:27:20;12.15;;;3.38;;
41293;SDS011;27037;52.010;4.446;2022-09-09T03:29:46;9.73;;;3.40;;
41293;SDS011;27037;52.010;4.446;2022-09-09T03:32:12;10.73;;;3.20;;
41293;SDS011;27037;52.010;4.446;2022-09-09T03:34:37;12.73;;;3.20;;
41293;SDS011;27037;52.010;4.446;2022-09-09T03:37:05;10.65;;;2.90;;
41293;SDS011;27037;52.010;4.446;2022-09-09T03:39:31;7.28;;;2.92;;
41293;SDS011;27037;52.010;4.446;2022-09-09T03:41:56;12.48;;;3.00;;
41293;SDS011;27037;52.010;4.446;2022-09-09T03:44:22;7.40;;;2.72;;
41293;SDS011;27037;52.010;4.446;2022-09-09T03:46:48;5.85;;;2.80;;
41293;SDS011;27037;52.010;4.446;2022-09-09T03:49:13;11.93;;;3.05;;
41293;SDS011;27037;52.010;4.446;2022-09-09T03:51:40;10.65;;;2.83;;
41293;SDS011;27037;52.010;4.446;2022-09-09T03:54:06;8.25;;;2.40;;
41293;SDS011;27037;52.010;4.446;2022-09-09T03:56:35;8.55;;;2.72;;
41293;SDS011;27037;52.010;4.446;2022-09-09T03:59:00;7.80;;;2.78;;
41293;SDS011;27037;52.010;4.446;2022-09-09T04:01:26;8.50;;;2.50;;
41293;SDS011;27037;52.010;4.446;2022-09-09T04:03:52;9.38;;;2.60;;
41293;SDS011;27037;52.010;4.446;2022-09-09T04:06:18;7.20;;;2.25;;
41293;SDS011;27037;52.010;4.446;2022-09-09T04:08:46;9.88;;;2.47;;
41293;SDS011;27037;52.010;4.446;2022-09-09T04:11:13;9.95;;;2.65;;
41293;SDS011;27037;52.010;4.446;2022-09-09T04:13:40;8.35;;;2.20;;
41293;SDS011;27037;52.010;4.446;2022-09-09T04:16:07;6.25;;;2.30;;
41293;SDS011;27037;52.010;4.446;2022-09-09T04:18:35;7.45;;;2.70;;
41293;SDS011;27037;52.010;4.446;2022-09-09T04:21:00;12.23;;;3.10;;
41293;SDS011;27037;52.010;4.446;2022-09-09T04:23:27;11.32;;;3.03;;
41293;SDS011;27037;52.010;4.446;2022-09-09T04:25:56;11.20;;;3.10;;
41293;SDS011;27037;52.010;4.446;2022-09-09T04:28:24;10.18;;;3.03;;
41293;SDS011;27037;52.010;4.446;2022-09-09T04:30:51;10.85;;;3.03;;
41293;SDS011;27037;52.010;4.446;2022-09-09T04:33:17;12.70;;;3.28;;
41293;SDS011;27037;52.010;4.446;2022-09-09T04:35:44;10.68;;;3.85;;
41293;SDS011;27037;52.010;4.446;2022-09-09T04:38:12;13.55;;;4.28;;
41293;SDS011;27037;52.010;4.446;2022-09-09T04:40:38;12.57;;;3.53;;
41293;SDS011;27037;52.010;4.446;2022-09-09T04:43:07;10.05;;;3.88;;
41293;SDS011;27037;52.010;4.446;2022-09-09T04:45:34;10.18;;;3.83;;
41293;SDS011;27037;52.010;4.446;2022-09-09T04:47:59;14.48;;;4.07;;
41293;SDS011;27037;52.010;4.446;2022-09-09T04:50:25;10.63;;;3.50;;
41293;SDS011;27037;52.010;4.446;2022-09-09T04:52:51;15.07;;;3.60;;
41293;SDS011;27037;52.010;4.446;2022-09-09T04:55:17;12.80;;;3.53;;
41293;SDS011;27037;52.010;4.446;2022-09-09T04:57:42;11.40;;;3.33;;
41293;SDS011;27037;52.010;4.446;2022-09-09T05:00:08;9.15;;;3.35;;
41293;SDS011;27037;52.010;4.446;2022-09-09T05:02:38;12.02;;;3.95;;
41293;SDS011;27037;52.010;4.446;2022-09-09T05:05:04;10.32;;;3.55;;
41293;SDS011;27037;52.010;4.446;2022-09-09T05:07:30;14.88;;;3.88;;
41293;SDS011;27037;52.010;4.446;2022-09-09T05:09:56;13.52;;;3.80;;
41293;SDS011;27037;52.010;4.446;2022-09-09T05:12:22;13.27;;;4.00;;
41293;SDS011;27037;52.010;4.446;2022-09-09T05:14:50;18.58;;;4.10;;
41293;SDS011;27037;52.010;4.446;2022-09-09T05:17:16;11.57;;;3.95;;
41293;SDS011;27037;52.010;4.446;2022-09-09T05:19:42;9.63;;;3.58;;
41293;SDS011;27037;52.010;4.446;2022-09-09T05:22:09;12.23;;;4.00;;
41293;SDS011;27037;52.010;4.446;2022-09-09T05:24:36;9.98;;;3.90;;
41293;SDS011;27037;52.010;4.446;2022-09-09T05:27:01;15.68;;;4.10;;
41293;SDS011;27037;52.010;4.446;2022-09-09T05:29:27;12.52;;;4.32;;
41293;SDS011;27037;52.010;4.446;2022-09-09T05:31:53;16.77;;;4.38;;
41293;SDS011;27037;52.010;4.446;2022-09-09T05:34:19;13.93;;;4.10;;
41293;SDS011;27037;52.010;4.446;2022-09-09T05:36:45;13.70;;;3.88;;
41293;SDS011;27037;52.010;4.446;2022-09-09T05:39:11;17.63;;;4.20;;
41293;SDS011;27037;52.010;4.446;2022-09-09T05:41:37;12.23;;;3.67;;
41293;SDS011;27037;52.010;4.446;2022-09-09T05:44:03;10.43;;;3.65;;
41293;SDS011;27037;52.010;4.446;2022-09-09T05:46:29;10.48;;;3.67;;
41293;SDS011;27037;52.010;4.446;2022-09-09T05:48:55;14.93;;;4.50;;
41293;SDS011;27037;52.010;4.446;2022-09-09T05:51:21;11.25;;;3.42;;
41293;SDS011;27037;52.010;4.446;2022-09-09T05:53:55;16.63;;;4.00;;
41293;SDS011;27037;52.010;4.446;2022-09-09T05:56:23;9.95;;;3.30;;
41293;SDS011;27037;52.010;4.446;2022-09-09T05:58:51;14.18;;;3.60;;
41293;SDS011;27037;52.010;4.446;2022-09-09T06:01:22;12.00;;;3.50;;
41293;SDS011;27037;52.010;4.446;2022-09-09T06:03:50;14.18;;;3.30;;
41293;SDS011;27037;52.010;4.446;2022-09-09T06:06:17;16.20;;;3.60;;
41293;SDS011;27037;52.010;4.446;2022-09-09T06:08:51;13.75;;;3.30;;
41293;SDS011;27037;52.010;4.446;2022-09-09T06:13:49;16.83;;;3.40;;
41293;SDS011;27037;52.010;4.446;2022-09-09T06:16:18;13.02;;;3.78;;
41293;SDS011;27037;52.010;4.446;2022-09-09T06:18:45;15.25;;;3.72;;
41293;SDS011;27037;52.010;4.446;2022-09-09T06:21:16;9.57;;;3.20;;
41293;SDS011;27037;52.010;4.446;2022-09-09T06:23:43;15.63;;;3.63;;
41293;SDS011;27037;52.010;4.446;2022-09-09T06:26:11;11.63;;;3.28;;
41293;SDS011;27037;52.010;4.446;2022-09-09T06:28:43;15.13;;;3.25;;
41293;SDS011;27037;52.010;4.446;2022-09-09T06:31:11;14.93;;;3.67;;
41293;SDS011;27037;52.010;4.446;2022-09-09T06:33:38;12.57;;;3.72;;
41293;SDS011;27037;52.010;4.446;2022-09-09T06:36:06;14.98;;;3.80;;
41293;SDS011;27037;52.010;4.446;2022-09-09T06:38:43;14.65;;;3.85;;
41293;SDS011;27037;52.010;4.446;2022-09-09T06:41:10;13.35;;;4.15;;
41293;SDS011;27037;52.010;4.446;2022-09-09T06:43:37;14.30;;;3.70;;
41293;SDS011;27037;52.010;4.446;2022-09-09T06:46:13;15.70;;;3.88;;
41293;SDS011;27037;52.010;4.446;2022-09-09T06:48:43;11.48;;;3.42;;
41293;SDS011;27037;52.010;4.446;2022-09-09T06:51:11;14.73;;;4.20;;
41293;SDS011;27037;52.010;4.446;2022-09-09T06:53:43;19.63;;;4.78;;
41293;SDS011;27037;52.010;4.446;2022-09-09T06:58:35;13.52;;;4.60;;
41293;SDS011;27037;52.010;4.446;2022-09-09T07:01:07;15.20;;;4.88;;
41293;SDS011;27037;52.010;4.446;2022-09-09T07:03:33;15.15;;;4.45;;
41293;SDS011;27037;52.010;4.446;2022-09-09T07:06:00;9.43;;;3.95;;
41293;SDS011;27037;52.010;4.446;2022-09-09T07:08:26;15.05;;;4.38;;
41293;SDS011;27037;52.010;4.446;2022-09-09T07:10:52;13.50;;;4.45;;
41293;SDS011;27037;52.010;4.446;2022-09-09T07:13:25;12.13;;;4.60;;
41293;SDS011;27037;52.010;4.446;2022-09-09T07:15:52;13.52;;;4.47;;
41293;SDS011;27037;52.010;4.446;2022-09-09T07:18:18;11.05;;;4.63;;
41293;SDS011;27037;52.010;4.446;2022-09-09T07:20:53;12.70;;;4.30;;
41293;SDS011;27037;52.010;4.446;2022-09-09T07:23:20;13.23;;;4.20;;
41293;SDS011;27037;52.010;4.446;2022-09-09T07:25:45;16.88;;;4.90;;
41293;SDS011;27037;52.010;4.446;2022-09-09T07:28:12;13.65;;;4.47;;
41293;SDS011;27037;52.010;4.446;2022-09-09T07:30:38;16.77;;;4.65;;
41293;SDS011;27037;52.010;4.446;2022-09-09T07:33:05;12.93;;;4.63;;
41293;SDS011;27037;52.010;4.446;2022-09-09T07:35:30;12.07;;;4.43;;
41293;SDS011;27037;52.010;4.446;2022-09-09T07:37:56;13.98;;;4.78;;
41293;SDS011;27037;52.010;4.446;2022-09-09T07:40:23;12.15;;;4.55;;
41293;SDS011;27037;52.010;4.446;2022-09-09T07:42:49;15.75;;;5.18;;
41293;SDS011;27037;52.010;4.446;2022-09-09T07:45:15;14.68;;;5.03;;
41293;SDS011;27037;52.010;4.446;2022-09-09T07:47:40;16.08;;;4.82;;
41293;SDS011;27037;52.010;4.446;2022-09-09T07:50:07;14.50;;;4.78;;
41293;SDS011;27037;52.010;4.446;2022-09-09T07:52:34;16.95;;;4.78;;
41293;SDS011;27037;52.010;4.446;2022-09-09T07:55:01;13.52;;;4.68;;
41293;SDS011;27037;52.010;4.446;2022-09-09T07:57:28;12.48;;;4.10;;
41293;SDS011;27037;52.010;4.446;2022-09-09T07:59:55;15.13;;;4.07;;
41293;SDS011;27037;52.010;4.446;2022-09-09T08:02:21;14.40;;;4.25;;
41293;SDS011;27037;52.010;4.446;2022-09-09T08:04:48;13.65;;;4.32;;
41293;SDS011;27037;52.010;4.446;2022-09-09T08:07:14;16.42;;;3.95;;
41293;SDS011;27037;52.010;4.446;2022-09-09T08:09:41;14.10;;;3.65;;
41293;SDS011;27037;52.010;4.446;2022-09-09T08:12:06;12.23;;;3.38;;
41293;SDS011;27037;52.010;4.446;2022-09-09T08:14:33;11.23;;;3.70;;
41293;SDS011;27037;52.010;4.446;2022-09-09T08:16:58;13.65;;;4.15;;
41293;SDS011;27037;52.010;4.446;2022-09-09T08:19:25;15.13;;;3.72;;
41293;SDS011;27037;52.010;4.446;2022-09-09T08:21:51;11.05;;;3.80;;
41293;SDS011;27037;52.010;4.446;2022-09-09T08:24:16;12.15;;;3.97;;
41293;SDS011;27037;52.010;4.446;2022-09-09T08:26:45;14.48;;;4.15;;
41293;SDS011;27037;52.010;4.446;2022-09-09T08:29:15;13.23;;;3.65;;
41293;SDS011;27037;52.010;4.446;2022-09-09T08:31:51;11.98;;;3.72;;
41293;SDS011;27037;52.010;4.446;2022-09-09T08:34:22;13.15;;;3.58;;
41293;SDS011;27037;52.010;4.446;2022-09-09T08:36:49;11.00;;;3.10;;
41293;SDS011;27037;52.010;4.446;2022-09-09T08:39:16;14.70;;;3.88;;
41293;SDS011;27037;52.010;4.446;2022-09-09T08:50:16;10.18;;;3.50;;
41293;SDS011;27037;52.010;4.446;2022-09-09T08:58:26;13.73;;;4.07;;
41293;SDS011;27037;52.010;4.446;2022-09-09T09:03:51;14.85;;;4.32;;
41293;SDS011;27037;52.010;4.446;2022-09-09T09:11:39;13.07;;;4.15;;
41293;SDS011;27037;52.010;4.446;2022-09-09T09:14:09;13.57;;;3.78;;
41293;SDS011;27037;52.010;4.446;2022-09-09T09:17:02;11.85;;;3.55;;
41293;SDS011;27037;52.010;4.446;2022-09-09T09:19:32;13.50;;;3.50;;
41293;SDS011;27037;52.010;4.446;2022-09-09T09:24:48;14.95;;;4.07;;
41293;SDS011;27037;52.010;4.446;2022-09-09T09:30:19;13.82;;;4.32;;
41293;SDS011;27037;52.010;4.446;2022-09-09T09:32:54;17.50;;;4.00;;
41293;SDS011;27037;52.010;4.446;2022-09-09T09:35:23;12.10;;;3.55;;
41293;SDS011;27037;52.010;4.446;2022-09-09T09:37:48;14.23;;;4.22;;
41293;SDS011;27037;52.010;4.446;2022-09-09T09:40:16;14.23;;;4.03;;
41293;SDS011;27037;52.010;4.446;2022-09-09T09:42:54;18.50;;;4.10;;
41293;SDS011;27037;52.010;4.446;2022-09-09T09:45:31;12.25;;;4.13;;
41293;SDS011;27037;52.010;4.446;2022-09-09T09:48:05;12.68;;;3.85;;
41293;SDS011;27037;52.010;4.446;2022-09-09T09:50:34;11.68;;;3.63;;
41293;SDS011;27037;52.010;4.446;2022-09-09T09:53:02;11.45;;;4.00;;
41293;SDS011;27037;52.010;4.446;2022-09-09T09:55:30;12.90;;;4.10;;
41293;SDS011;27037;52.010;4.446;2022-09-09T09:58:03;10.65;;;3.50;;
41293;SDS011;27037;52.010;4.446;2022-09-09T10:00:31;13.85;;;4.13;;
41293;SDS011;27037;52.010;4.446;2022-09-09T10:02:59;14.20;;;4.28;;
41293;SDS011;27037;52.010;4.446;2022-09-09T10:05:27;13.07;;;4.68;;
41293;SDS011;27037;52.010;4.446;2022-09-09T10:08:03;13.20;;;4.13;;
41293;SDS011;27037;52.010;4.446;2022-09-09T10:19:33;13.32;;;4.63;;
41293;SDS011;27037;52.010;4.446;2022-09-09T10:32:45;15.13;;;4.35;;
41293;SDS011;27037;52.010;4.446;2022-09-09T10:38:14;12.70;;;3.63;;
41293;SDS011;27037;52.010;4.446;2022-09-09T10:40:46;10.38;;;4.05;;
41293;SDS011;27037;52.010;4.446;2022-09-09T10:45:59;9.80;;;3.47;;
41293;SDS011;27037;52.010;4.446;2022-09-09T10:56:40;13.98;;;4.38;;
41293;SDS011;27037;52.010;4.446;2022-09-09T10:59:13;8.95;;;3.35;;
41293;SDS011;27037;52.010;4.446;2022-09-09T11:01:47;10.15;;;3.40;;
41293;SDS011;27037;52.010;4.446;2022-09-09T11:04:24;10.88;;;3.75;;
41293;SDS011;27037;52.010;4.446;2022-09-09T11:06:55;7.35;;;3.25;;
41293;SDS011;27037;52.010;4.446;2022-09-09T11:09:26;11.23;;;3.08;;
41293;SDS011;27037;52.010;4.446;2022-09-09T11:11:58;7.63;;;3.00;;
41293;SDS011;27037;52.010;4.446;2022-09-09T11:14:37;11.43;;;3.38;;
41293;SDS011;27037;52.010;4.446;2022-09-09T11:17:15;9.65;;;3.53;;
41293;SDS011;27037;52.010;4.446;2022-09-09T11:19:44;7.97;;;3.30;;
41293;SDS011;27037;52.010;4.446;2022-09-09T11:24:51;8.27;;;3.55;;
41293;SDS011;27037;52.010;4.446;2022-09-09T11:27:28;8.73;;;3.00;;
41293;SDS011;27037;52.010;4.446;2022-09-09T11:32:59;8.60;;;2.95;;
41293;SDS011;27037;52.010;4.446;2022-09-09T11:39:02;9.55;;;2.63;;
41293;SDS011;27037;52.010;4.446;2022-09-09T11:41:48;12.15;;;2.92;;
41293;SDS011;27037;52.010;4.446;2022-09-09T11:44:18;7.57;;;2.85;;
41293;SDS011;27037;52.010;4.446;2022-09-09T11:46:50;8.10;;;3.25;;
41293;SDS011;27037;52.010;4.446;2022-09-09T11:49:29;12.27;;;2.63;;
41293;SDS011;27037;52.010;4.446;2022-09-09T11:52:21;8.55;;;3.08;;
41293;SDS011;27037;52.010;4.446;2022-09-09T11:54:50;11.60;;;3.45;;
41293;SDS011;27037;52.010;4.446;2022-09-09T11:57:24;8.25;;;3.42;;
41293;SDS011;27037;52.010;4.446;2022-09-09T11:59:57;10.65;;;3.53;;
41293;SDS011;27037;52.010;4.446;2022-09-09T12:02:24;9.70;;;3.53;;
41293;SDS011;27037;52.010;4.446;2022-09-09T12:07:38;8.18;;;3.70;;
41293;SDS011;27037;52.010;4.446;2022-09-09T12:10:31;8.32;;;3.80;;
41293;SDS011;27037;52.010;4.446;2022-09-09T12:13:09;9.50;;;4.05;;
41293;SDS011;27037;52.010;4.446;2022-09-09T12:15:48;11.32;;;4.05;;
41293;SDS011;27037;52.010;4.446;2022-09-09T12:21:18;6.25;;;3.55;;
41293;SDS011;27037;52.010;4.446;2022-09-09T12:23:55;6.80;;;3.40;;
41293;SDS011;27037;52.010;4.446;2022-09-09T12:29:18;5.97;;;2.55;;
41293;SDS011;27037;52.010;4.446;2022-09-09T12:32:13;9.05;;;3.08;;
41293;SDS011;27037;52.010;4.446;2022-09-09T12:34:47;7.30;;;3.05;;
41293;SDS011;27037;52.010;4.446;2022-09-09T12:40:14;8.90;;;3.40;;
41293;SDS011;27037;52.010;4.446;2022-09-09T12:42:43;8.32;;;3.20;;
41293;SDS011;27037;52.010;4.446;2022-09-09T12:45:16;7.82;;;3.42;;
41293;SDS011;27037;52.010;4.446;2022-09-09T12:47:54;11.27;;;3.45;;
41293;SDS011;27037;52.010;4.446;2022-09-09T12:50:24;6.80;;;3.47;;
41293;SDS011;27037;52.010;4.446;2022-09-09T12:52:51;8.52;;;3.33;;
41293;SDS011;27037;52.010;4.446;2022-09-09T12:55:32;7.00;;;3.35;;
41293;SDS011;27037;52.010;4.446;2022-09-09T12:58:03;9.98;;;3.70;;
41293;SDS011;27037;52.010;4.446;2022-09-09T13:00:31;7.72;;;3.58;;
41293;SDS011;27037;52.010;4.446;2022-09-09T13:03:02;7.60;;;3.35;;
41293;SDS011;27037;52.010;4.446;2022-09-09T13:05:41;9.27;;;3.50;;
41293;SDS011;27037;52.010;4.446;2022-09-09T13:08:10;7.38;;;3.40;;
41293;SDS011;27037;52.010;4.446;2022-09-09T13:10:38;7.10;;;2.67;;
41293;SDS011;27037;52.010;4.446;2022-09-09T13:13:15;3.88;;;2.50;;
41293;SDS011;27037;52.010;4.446;2022-09-09T13:15:49;3.55;;;2.30;;
41293;SDS011;27037;52.010;4.446;2022-09-09T13:18:17;4.47;;;2.33;;
41293;SDS011;27037;52.010;4.446;2022-09-09T13:20:48;3.85;;;2.17;;
41293;SDS011;27037;52.010;4.446;2022-09-09T13:23:15;5.80;;;2.40;;
41293;SDS011;27037;52.010;4.446;2022-09-09T13:25:52;4.60;;;2.03;;
41293;SDS011;27037;52.010;4.446;2022-09-09T13:28:23;6.00;;;1.90;;
41293;SDS011;27037;52.010;4.446;2022-09-09T13:31:01;10.93;;;2.25;;
41293;SDS011;27037;52.010;4.446;2022-09-09T13:33:35;5.55;;;2.22;;
41293;SDS011;27037;52.010;4.446;2022-09-09T13:38:35;8.60;;;2.08;;
41293;SDS011;27037;52.010;4.446;2022-09-09T13:41:04;10.60;;;2.95;;
41293;SDS011;27037;52.010;4.446;2022-09-09T13:43:41;12.50;;;2.85;;
41293;SDS011;27037;52.010;4.446;2022-09-09T13:46:26;6.40;;;1.45;;
41293;SDS011;27037;52.010;4.446;2022-09-09T13:51:37;2.30;;;0.90;;
41293;SDS011;27037;52.010;4.446;2022-09-09T13:54:05;7.20;;;1.40;;
41293;SDS011;27037;52.010;4.446;2022-09-09T13:56:34;4.35;;;1.45;;
41293;SDS011;27037;52.010;4.446;2022-09-09T13:59:00;6.50;;;1.80;;
41293;SDS011;27037;52.010;4.446;2022-09-09T14:01:27;7.93;;;2.08;;
41293;SDS011;27037;52.010;4.446;2022-09-09T14:03:53;8.85;;;2.08;;
41293;SDS011;27037;52.010;4.446;2022-09-09T14:06:19;4.88;;;1.70;;
41293;SDS011;27037;52.010;4.446;2022-09-09T14:08:46;4.95;;;1.95;;
41293;SDS011;27037;52.010;4.446;2022-09-09T14:11:13;4.40;;;1.50;;
41293;SDS011;27037;52.010;4.446;2022-09-09T14:13:39;6.25;;;1.90;;
41293;SDS011;27037;52.010;4.446;2022-09-09T14:16:05;6.25;;;1.70;;
41293;SDS011;27037;52.010;4.446;2022-09-09T14:18:31;4.65;;;1.52;;
41293;SDS011;27037;52.010;4.446;2022-09-09T14:20:56;4.75;;;1.80;;
41293;SDS011;27037;52.010;4.446;2022-09-09T14:23:23;7.43;;;1.60;;
41293;SDS011;27037;52.010;4.446;2022-09-09T14:25:49;3.08;;;1.50;;
41293;SDS011;27037;52.010;4.446;2022-09-09T14:28:15;6.10;;;1.98;;
41293;SDS011;27037;52.010;4.446;2022-09-09T14:30:42;7.28;;;1.85;;
41293;SDS011;27037;52.010;4.446;2022-09-09T14:33:11;8.23;;;1.77;;
41293;SDS011;27037;52.010;4.446;2022-09-09T14:35:39;6.22;;;1.95;;
41293;SDS011;27037;52.010;4.446;2022-09-09T14:38:06;5.97;;;1.80;;
41293;SDS011;27037;52.010;4.446;2022-09-09T14:40:34;9.75;;;1.90;;
41293;SDS011;27037;52.010;4.446;2022-09-09T14:43:00;6.90;;;1.88;;
41293;SDS011;27037;52.010;4.446;2022-09-09T14:45:26;9.43;;;2.08;;
41293;SDS011;27037;52.010;4.446;2022-09-09T14:47:52;8.75;;;2.42;;
41293;SDS011;27037;52.010;4.446;2022-09-09T14:50:20;9.05;;;2.00;;
41293;SDS011;27037;52.010;4.446;2022-09-09T14:52:47;9.32;;;2.28;;
41293;SDS011;27037;52.010;4.446;2022-09-09T14:55:13;5.13;;;1.60;;
41293;SDS011;27037;52.010;4.446;2022-09-09T14:57:42;7.38;;;2.00;;
41293;SDS011;27037;52.010;4.446;2022-09-09T15:00:09;8.20;;;2.00;;
41293;SDS011;27037;52.010;4.446;2022-09-09T15:02:36;7.60;;;1.90;;
41293;SDS011;27037;52.010;4.446;2022-09-09T15:05:01;9.18;;;2.08;;
41293;SDS011;27037;52.010;4.446;2022-09-09T15:07:27;10.23;;;1.90;;
41293;SDS011;27037;52.010;4.446;2022-09-09T15:09:53;8.15;;;1.50;;
41293;SDS011;27037;52.010;4.446;2022-09-09T15:12:20;8.25;;;1.90;;
41293;SDS011;27037;52.010;4.446;2022-09-09T15:14:45;10.98;;;1.80;;
41293;SDS011;27037;52.010;4.446;2022-09-09T15:17:12;6.47;;;1.40;;
41293;SDS011;27037;52.010;4.446;2022-09-09T15:19:38;10.00;;;2.15;;
41293;SDS011;27037;52.010;4.446;2022-09-09T15:22:04;7.93;;;1.80;;
41293;SDS011;27037;52.010;4.446;2022-09-09T15:24:31;6.47;;;2.08;;
41293;SDS011;27037;52.010;4.446;2022-09-09T15:26:57;6.97;;;1.88;;
41293;SDS011;27037;52.010;4.446;2022-09-09T15:29:23;6.85;;;1.92;;
41293;SDS011;27037;52.010;4.446;2022-09-09T15:31:49;8.82;;;2.00;;
41293;SDS011;27037;52.010;4.446;2022-09-09T15:34:14;9.18;;;2.10;;
41293;SDS011;27037;52.010;4.446;2022-09-09T15:36:41;4.90;;;2.25;;
41293;SDS011;27037;52.010;4.446;2022-09-09T15:39:09;9.80;;;2.83;;
41293;SDS011;27037;52.010;4.446;2022-09-09T15:41:38;13.43;;;2.95;;
41293;SDS011;27037;52.010;4.446;2022-09-09T15:44:04;13.15;;;3.78;;
41293;SDS011;27037;52.010;4.446;2022-09-09T15:49:19;13.38;;;3.88;;
41293;SDS011;27037;52.010;4.446;2022-09-09T15:51:50;11.35;;;4.00;;
41293;SDS011;27037;52.010;4.446;2022-09-09T15:54:18;12.45;;;3.80;;
41293;SDS011;27037;52.010;4.446;2022-09-09T15:56:49;10.15;;;4.82;;
41293;SDS011;27037;52.010;4.446;2022-09-09T15:59:17;15.38;;;5.43;;
41293;SDS011;27037;52.010;4.446;2022-09-09T16:01:43;14.38;;;5.63;;
41293;SDS011;27037;52.010;4.446;2022-09-09T16:04:09;16.10;;;5.63;;
41293;SDS011;27037;52.010;4.446;2022-09-09T16:06:35;12.48;;;6.82;;
41293;SDS011;27037;52.010;4.446;2022-09-09T16:09:02;17.48;;;7.63;;
41293;SDS011;27037;52.010;4.446;2022-09-09T16:11:30;16.95;;;8.02;;
41293;SDS011;27037;52.010;4.446;2022-09-09T16:13:57;16.70;;;8.57;;
41293;SDS011;27037;52.010;4.446;2022-09-09T16:16:24;12.68;;;7.68;;
41293;SDS011;27037;52.010;4.446;2022-09-09T16:18:53;17.10;;;9.13;;
41293;SDS011;27037;52.010;4.446;2022-09-09T16:23:47;17.02;;;8.55;;
41293;SDS011;27037;52.010;4.446;2022-09-09T16:26:15;19.52;;;8.30;;
41293;SDS011;27037;52.010;4.446;2022-09-09T16:28:42;17.10;;;9.25;;
41293;SDS011;27037;52.010;4.446;2022-09-09T16:31:09;18.25;;;9.32;;
41293;SDS011;27037;52.010;4.446;2022-09-09T16:33:38;15.45;;;8.90;;
41293;SDS011;27037;52.010;4.446;2022-09-09T16:36:05;18.05;;;8.35;;
41293;SDS011;27037;52.010;4.446;2022-09-09T16:38:36;17.60;;;8.73;;
41293;SDS011;27037;52.010;4.446;2022-09-09T16:41:02;14.50;;;8.30;;
41293;SDS011;27037;52.010;4.446;2022-09-09T16:43:30;14.18;;;7.32;;
41293;SDS011;27037;52.010;4.446;2022-09-09T16:45:57;13.48;;;7.30;;
41293;SDS011;27037;52.010;4.446;2022-09-09T16:48:25;10.63;;;6.10;;
41293;SDS011;27037;52.010;4.446;2022-09-09T16:50:51;12.13;;;5.63;;
41293;SDS011;27037;52.010;4.446;2022-09-09T16:53:17;8.75;;;4.90;;
41293;SDS011;27037;52.010;4.446;2022-09-09T16:55:43;10.32;;;4.68;;
41293;SDS011;27037;52.010;4.446;2022-09-09T16:58:12;10.02;;;4.35;;
41293;SDS011;27037;52.010;4.446;2022-09-09T17:00:38;7.22;;;4.78;;
41293;SDS011;27037;52.010;4.446;2022-09-09T17:03:03;8.38;;;4.47;;
41293;SDS011;27037;52.010;4.446;2022-09-09T17:05:30;7.13;;;4.53;;
41293;SDS011;27037;52.010;4.446;2022-09-09T17:07:57;16.67;;;4.88;;
41293;SDS011;27037;52.010;4.446;2022-09-09T17:10:23;8.68;;;4.60;;
41293;SDS011;27037;52.010;4.446;2022-09-09T17:12:50;13.02;;;5.20;;
41293;SDS011;27037;52.010;4.446;2022-09-09T17:15:16;8.30;;;5.00;;
41293;SDS011;27037;52.010;4.446;2022-09-09T17:17:43;7.85;;;4.80;;
41293;SDS011;27037;52.010;4.446;2022-09-09T17:20:10;9.55;;;5.53;;
41293;SDS011;27037;52.010;4.446;2022-09-09T17:22:35;8.98;;;5.15;;
41293;SDS011;27037;52.010;4.446;2022-09-09T17:25:01;9.68;;;5.57;;
41293;SDS011;27037;52.010;4.446;2022-09-09T17:27:28;12.20;;;5.82;;
41293;SDS011;27037;52.010;4.446;2022-09-09T17:29:56;13.20;;;5.85;;
41293;SDS011;27037;52.010;4.446;2022-09-09T17:32:22;10.43;;;5.47;;